Decoded Metar for CYPD (PORT HAWKESBURY in NS, CANADA) (IATA:YPD) | Meteo·Mobile Aviation Weather
aviador You're here:

CYPD Decoded Metar

PORT HAWKESBURY in NS, CANADA
Report Time2019-02-17 16:00:00
UTC Time2019-02-17 16:43:27
Flight Rules mvfr MVFR
Wind290° at 18 Gusting to 24 kt
W.Decomp.*RWY 29: 17.0 kt HW 5.9 kt RCW
W.Rank290° ranks 1
Current wind is above 290° avg. (10.9)
Visibility9999 m
Phenomena:Light Snow
Clouds:Overcast 018 Hf
Expected CloudBase > 1,600 ft AGL from Temp-Dew spread
Ceiling1,800 ft
Temp-6°C (ISA -20)
Dew Point-10°C (74% RH)
AAT-15.5°C
QNH1010 hPa
Density Alt-1,988 ft
Elevation374 ft
Report Wrong Elevation
Raw Report
METAR CYPD 171600Z AUTO 29018G24KT 9SM -SN OVC018 M06/M10 A2983 RMK SLP111=

Extra information for CYPD:More info

Metar Taf Metar & Taf Last 4 Metars F.Rules Stats Wind Profile Meteogram Temp Stats Airport Information Weather charts Add Link Nearby VenuesMetar ALERT Operation Metar Decoded Social comments